sensor_id;sensor_type;location;lat;lon;timestamp;P1;durP1;ratioP1;P2;durP2;ratioP2
80823;SDS011;70538;59.122;37.876;2023-06-14T00:00:46;6.32;;;2.45;;
80823;SDS011;70538;59.122;37.876;2023-06-14T00:03:16;8.57;;;2.35;;
80823;SDS011;70538;59.122;37.876;2023-06-14T00:05:49;6.72;;;2.40;;
80823;SDS011;70538;59.122;37.876;2023-06-14T00:08:17;6.10;;;2.10;;
80823;SDS011;70538;59.122;37.876;2023-06-14T00:10:46;6.55;;;2.20;;
80823;SDS011;70538;59.122;37.876;2023-06-14T00:13:15;6.60;;;2.25;;
80823;SDS011;70538;59.122;37.876;2023-06-14T00:15:45;6.32;;;2.30;;
80823;SDS011;70538;59.122;37.876;2023-06-14T00:18:15;6.28;;;2.08;;
80823;SDS011;70538;59.122;37.876;2023-06-14T00:20:44;6.63;;;2.30;;
80823;SDS011;70538;59.122;37.876;2023-06-14T00:23:16;6.18;;;2.15;;
80823;SDS011;70538;59.122;37.876;2023-06-14T00:25:44;5.90;;;2.38;;
80823;SDS011;70538;59.122;37.876;2023-06-14T00:28:13;7.00;;;2.30;;
80823;SDS011;70538;59.122;37.876;2023-06-14T00:30:44;6.93;;;2.40;;
80823;SDS011;70538;59.122;37.876;2023-06-14T00:33:14;5.53;;;2.17;;
80823;SDS011;70538;59.122;37.876;2023-06-14T00:35:43;6.60;;;2.22;;
80823;SDS011;70538;59.122;37.876;2023-06-14T00:38:11;5.60;;;2.03;;
80823;SDS011;70538;59.122;37.876;2023-06-14T00:40:40;8.30;;;2.55;;
80823;SDS011;70538;59.122;37.876;2023-06-14T00:43:08;6.47;;;2.30;;
80823;SDS011;70538;59.122;37.876;2023-06-14T00:45:37;5.80;;;2.07;;
80823;SDS011;70538;59.122;37.876;2023-06-14T00:48:06;7.20;;;2.50;;
80823;SDS011;70538;59.122;37.876;2023-06-14T00:50:36;7.07;;;2.80;;
80823;SDS011;70538;59.122;37.876;2023-06-14T00:53:05;16.35;;;3.70;;
80823;SDS011;70538;59.122;37.876;2023-06-14T00:55:37;6.30;;;1.98;;
80823;SDS011;70538;59.122;37.876;2023-06-14T00:58:05;5.13;;;1.70;;
80823;SDS011;70538;59.122;37.876;2023-06-14T01:00:34;5.78;;;1.95;;
80823;SDS011;70538;59.122;37.876;2023-06-14T01:03:02;5.57;;;2.05;;
80823;SDS011;70538;59.122;37.876;2023-06-14T01:05:31;5.47;;;1.92;;
80823;SDS011;70538;59.122;37.876;2023-06-14T01:08:05;6.88;;;2.58;;
80823;SDS011;70538;59.122;37.876;2023-06-14T01:11:04;7.93;;;2.80;;
80823;SDS011;70538;59.122;37.876;2023-06-14T01:13:38;9.25;;;2.80;;
80823;SDS011;70538;59.122;37.876;2023-06-14T01:16:08;6.78;;;2.15;;
80823;SDS011;70538;59.122;37.876;2023-06-14T01:18:38;5.43;;;1.83;;
80823;SDS011;70538;59.122;37.876;2023-06-14T01:21:22;5.80;;;2.03;;
80823;SDS011;70538;59.122;37.876;2023-06-14T01:23:54;7.40;;;2.23;;
80823;SDS011;70538;59.122;37.876;2023-06-14T01:26:26;9.68;;;2.35;;
80823;SDS011;70538;59.122;37.876;2023-06-14T01:28:57;7.15;;;2.42;;
80823;SDS011;70538;59.122;37.876;2023-06-14T01:31:26;6.90;;;2.28;;
80823;SDS011;70538;59.122;37.876;2023-06-14T01:33:55;6.50;;;2.65;;
80823;SDS011;70538;59.122;37.876;2023-06-14T01:36:23;7.97;;;2.70;;
80823;SDS011;70538;59.122;37.876;2023-06-14T01:38:58;7.95;;;2.97;;
80823;SDS011;70538;59.122;37.876;2023-06-14T01:41:27;8.57;;;2.25;;
80823;SDS011;70538;59.122;37.876;2023-06-14T01:43:58;7.85;;;2.55;;
80823;SDS011;70538;59.122;37.876;2023-06-14T01:46:28;8.13;;;3.13;;
80823;SDS011;70538;59.122;37.876;2023-06-14T01:48:59;7.17;;;2.63;;
80823;SDS011;70538;59.122;37.876;2023-06-14T01:51:28;8.80;;;2.95;;
80823;SDS011;70538;59.122;37.876;2023-06-14T01:53:59;8.88;;;2.80;;
80823;SDS011;70538;59.122;37.876;2023-06-14T01:56:28;7.28;;;2.58;;
80823;SDS011;70538;59.122;37.876;2023-06-14T01:58:57;6.82;;;2.53;;
80823;SDS011;70538;59.122;37.876;2023-06-14T02:01:25;7.10;;;2.50;;
80823;SDS011;70538;59.122;37.876;2023-06-14T02:03:54;5.82;;;1.92;;
80823;SDS011;70538;59.122;37.876;2023-06-14T02:06:23;6.07;;;2.30;;
80823;SDS011;70538;59.122;37.876;2023-06-14T02:08:54;7.03;;;2.60;;
80823;SDS011;70538;59.122;37.876;2023-06-14T02:11:23;8.50;;;3.30;;
80823;SDS011;70538;59.122;37.876;2023-06-14T02:13:51;7.10;;;2.00;;
80823;SDS011;70538;59.122;37.876;2023-06-14T02:16:23;8.85;;;2.67;;
80823;SDS011;70538;59.122;37.876;2023-06-14T02:18:55;6.18;;;2.47;;
80823;SDS011;70538;59.122;37.876;2023-06-14T02:21:24;6.05;;;2.00;;
80823;SDS011;70538;59.122;37.876;2023-06-14T02:23:53;8.25;;;3.10;;
80823;SDS011;70538;59.122;37.876;2023-06-14T02:26:21;6.60;;;2.40;;
80823;SDS011;70538;59.122;37.876;2023-06-14T02:28:50;11.25;;;3.60;;
80823;SDS011;70538;59.122;37.876;2023-06-14T02:31:18;6.70;;;2.78;;
80823;SDS011;70538;59.122;37.876;2023-06-14T02:33:46;8.10;;;3.38;;
80823;SDS011;70538;59.122;37.876;2023-06-14T02:36:15;9.05;;;4.03;;
80823;SDS011;70538;59.122;37.876;2023-06-14T02:38:43;7.33;;;3.00;;
80823;SDS011;70538;59.122;37.876;2023-06-14T02:41:11;7.90;;;3.15;;
80823;SDS011;70538;59.122;37.876;2023-06-14T02:43:39;9.50;;;3.00;;
80823;SDS011;70538;59.122;37.876;2023-06-14T02:46:07;7.32;;;3.08;;
80823;SDS011;70538;59.122;37.876;2023-06-14T02:48:36;6.75;;;3.30;;
80823;SDS011;70538;59.122;37.876;2023-06-14T02:51:04;6.83;;;2.53;;
80823;SDS011;70538;59.122;37.876;2023-06-14T02:53:33;7.07;;;2.65;;
80823;SDS011;70538;59.122;37.876;2023-06-14T02:56:02;7.15;;;3.00;;
80823;SDS011;70538;59.122;37.876;2023-06-14T02:58:34;9.55;;;2.90;;
80823;SDS011;70538;59.122;37.876;2023-06-14T03:01:04;10.57;;;3.10;;
80823;SDS011;70538;59.122;37.876;2023-06-14T03:03:35;12.60;;;3.40;;
80823;SDS011;70538;59.122;37.876;2023-06-14T03:06:03;18.83;;;3.58;;
80823;SDS011;70538;59.122;37.876;2023-06-14T03:08:32;19.48;;;3.60;;
80823;SDS011;70538;59.122;37.876;2023-06-14T03:11:06;10.25;;;3.00;;
80823;SDS011;70538;59.122;37.876;2023-06-14T03:13:35;12.30;;;3.70;;
80823;SDS011;70538;59.122;37.876;2023-06-14T03:16:03;14.30;;;2.77;;
80823;SDS011;70538;59.122;37.876;2023-06-14T03:18:32;14.27;;;3.22;;
80823;SDS011;70538;59.122;37.876;2023-06-14T03:21:03;14.00;;;4.00;;
80823;SDS011;70538;59.122;37.876;2023-06-14T03:23:32;14.05;;;3.53;;
80823;SDS011;70538;59.122;37.876;2023-06-14T03:26:01;24.08;;;3.42;;
80823;SDS011;70538;59.122;37.876;2023-06-14T03:28:29;14.07;;;3.50;;
80823;SDS011;70538;59.122;37.876;2023-06-14T03:30:57;12.10;;;3.35;;
80823;SDS011;70538;59.122;37.876;2023-06-14T03:33:25;13.23;;;3.20;;
80823;SDS011;70538;59.122;37.876;2023-06-14T03:35:54;10.18;;;3.03;;
80823;SDS011;70538;59.122;37.876;2023-06-14T03:38:23;17.80;;;3.00;;
80823;SDS011;70538;59.122;37.876;2023-06-14T03:40:52;13.27;;;3.03;;
80823;SDS011;70538;59.122;37.876;2023-06-14T03:43:21;15.98;;;3.58;;
80823;SDS011;70538;59.122;37.876;2023-06-14T03:45:49;14.88;;;3.28;;
80823;SDS011;70538;59.122;37.876;2023-06-14T03:48:17;18.92;;;3.53;;
80823;SDS011;70538;59.122;37.876;2023-06-14T03:50:45;17.80;;;3.28;;
80823;SDS011;70538;59.122;37.876;2023-06-14T03:53:14;20.83;;;3.63;;
80823;SDS011;70538;59.122;37.876;2023-06-14T03:55:43;19.65;;;3.60;;
80823;SDS011;70538;59.122;37.876;2023-06-14T03:58:15;27.75;;;4.00;;
80823;SDS011;70538;59.122;37.876;2023-06-14T04:00:43;23.85;;;3.90;;
80823;SDS011;70538;59.122;37.876;2023-06-14T04:03:12;20.90;;;4.18;;
80823;SDS011;70538;59.122;37.876;2023-06-14T04:05:41;24.77;;;4.13;;
80823;SDS011;70538;59.122;37.876;2023-06-14T04:08:10;35.78;;;4.57;;
80823;SDS011;70538;59.122;37.876;2023-06-14T04:10:38;13.45;;;4.05;;
80823;SDS011;70538;59.122;37.876;2023-06-14T04:13:07;33.22;;;5.40;;
80823;SDS011;70538;59.122;37.876;2023-06-14T04:15:35;28.17;;;4.63;;
80823;SDS011;70538;59.122;37.876;2023-06-14T04:18:04;22.63;;;4.53;;
80823;SDS011;70538;59.122;37.876;2023-06-14T04:20:32;24.85;;;5.95;;
80823;SDS011;70538;59.122;37.876;2023-06-14T04:23:13;31.50;;;6.38;;
80823;SDS011;70538;59.122;37.876;2023-06-14T04:25:43;34.58;;;5.95;;
80823;SDS011;70538;59.122;37.876;2023-06-14T04:28:13;22.20;;;3.80;;
80823;SDS011;70538;59.122;37.876;2023-06-14T04:30:45;21.43;;;4.20;;
80823;SDS011;70538;59.122;37.876;2023-06-14T04:33:15;23.55;;;4.32;;
80823;SDS011;70538;59.122;37.876;2023-06-14T04:35:43;24.73;;;4.88;;
80823;SDS011;70538;59.122;37.876;2023-06-14T04:38:15;24.17;;;4.38;;
80823;SDS011;70538;59.122;37.876;2023-06-14T04:40:43;25.98;;;4.63;;
80823;SDS011;70538;59.122;37.876;2023-06-14T04:43:13;25.87;;;5.77;;
80823;SDS011;70538;59.122;37.876;2023-06-14T04:45:44;15.23;;;4.07;;
80823;SDS011;70538;59.122;37.876;2023-06-14T04:48:14;15.50;;;4.10;;
80823;SDS011;70538;59.122;37.876;2023-06-14T04:50:42;14.60;;;4.05;;
80823;SDS011;70538;59.122;37.876;2023-06-14T04:53:11;13.23;;;4.15;;
80823;SDS011;70538;59.122;37.876;2023-06-14T04:56:02;15.23;;;4.20;;
80823;SDS011;70538;59.122;37.876;2023-06-14T04:58:31;10.60;;;3.55;;
80823;SDS011;70538;59.122;37.876;2023-06-14T05:01:00;9.30;;;3.45;;
80823;SDS011;70538;59.122;37.876;2023-06-14T05:03:29;11.05;;;3.20;;
80823;SDS011;70538;59.122;37.876;2023-06-14T05:05:58;13.20;;;3.60;;
80823;SDS011;70538;59.122;37.876;2023-06-14T05:08:28;10.63;;;3.43;;
80823;SDS011;70538;59.122;37.876;2023-06-14T05:10:57;14.68;;;3.63;;
80823;SDS011;70538;59.122;37.876;2023-06-14T05:13:25;11.15;;;3.38;;
80823;SDS011;70538;59.122;37.876;2023-06-14T05:15:55;8.25;;;3.08;;
80823;SDS011;70538;59.122;37.876;2023-06-14T05:18:24;18.45;;;4.20;;
80823;SDS011;70538;59.122;37.876;2023-06-14T05:21:15;10.93;;;3.70;;
80823;SDS011;70538;59.122;37.876;2023-06-14T05:23:46;9.73;;;4.00;;
80823;SDS011;70538;59.122;37.876;2023-06-14T05:26:14;8.30;;;3.60;;
80823;SDS011;70538;59.122;37.876;2023-06-14T05:28:43;11.63;;;3.58;;
80823;SDS011;70538;59.122;37.876;2023-06-14T05:31:11;9.07;;;3.75;;
80823;SDS011;70538;59.122;37.876;2023-06-14T05:33:40;10.57;;;3.70;;
80823;SDS011;70538;59.122;37.876;2023-06-14T05:36:09;10.23;;;3.53;;
80823;SDS011;70538;59.122;37.876;2023-06-14T05:38:38;12.10;;;3.72;;
80823;SDS011;70538;59.122;37.876;2023-06-14T05:41:06;9.48;;;3.63;;
80823;SDS011;70538;59.122;37.876;2023-06-14T05:43:34;15.73;;;4.05;;
80823;SDS011;70538;59.122;37.876;2023-06-14T05:46:04;14.43;;;3.60;;
80823;SDS011;70538;59.122;37.876;2023-06-14T05:48:33;12.00;;;4.20;;
80823;SDS011;70538;59.122;37.876;2023-06-14T05:51:01;15.55;;;4.10;;
80823;SDS011;70538;59.122;37.876;2023-06-14T05:53:29;14.25;;;4.10;;
80823;SDS011;70538;59.122;37.876;2023-06-14T05:55:57;13.30;;;3.80;;
80823;SDS011;70538;59.122;37.876;2023-06-14T05:58:26;10.83;;;4.20;;
80823;SDS011;70538;59.122;37.876;2023-06-14T06:00:54;19.80;;;4.40;;
80823;SDS011;70538;59.122;37.876;2023-06-14T06:03:22;15.18;;;4.65;;
80823;SDS011;70538;59.122;37.876;2023-06-14T06:05:51;17.05;;;4.85;;
80823;SDS011;70538;59.122;37.876;2023-06-14T06:08:19;22.05;;;5.63;;
80823;SDS011;70538;59.122;37.876;2023-06-14T06:10:48;27.40;;;7.00;;
80823;SDS011;70538;59.122;37.876;2023-06-14T06:13:16;21.58;;;6.78;;
80823;SDS011;70538;59.122;37.876;2023-06-14T06:15:45;28.60;;;7.25;;
80823;SDS011;70538;59.122;37.876;2023-06-14T06:18:14;26.48;;;6.85;;
80823;SDS011;70538;59.122;37.876;2023-06-14T06:20:42;36.13;;;8.18;;
80823;SDS011;70538;59.122;37.876;2023-06-14T06:23:11;34.50;;;7.73;;
80823;SDS011;70538;59.122;37.876;2023-06-14T06:25:40;39.55;;;7.45;;
80823;SDS011;70538;59.122;37.876;2023-06-14T06:28:08;26.00;;;6.82;;
80823;SDS011;70538;59.122;37.876;2023-06-14T06:30:39;24.02;;;6.55;;
80823;SDS011;70538;59.122;37.876;2023-06-14T06:33:08;23.95;;;7.25;;
80823;SDS011;70538;59.122;37.876;2023-06-14T06:35:36;31.03;;;6.40;;
80823;SDS011;70538;59.122;37.876;2023-06-14T06:38:04;24.30;;;7.60;;
80823;SDS011;70538;59.122;37.876;2023-06-14T06:40:33;24.15;;;8.77;;
80823;SDS011;70538;59.122;37.876;2023-06-14T06:43:01;19.75;;;5.82;;
80823;SDS011;70538;59.122;37.876;2023-06-14T06:45:30;20.13;;;6.93;;
80823;SDS011;70538;59.122;37.876;2023-06-14T06:47:58;41.77;;;12.37;;
80823;SDS011;70538;59.122;37.876;2023-06-14T06:50:27;20.25;;;6.47;;
80823;SDS011;70538;59.122;37.876;2023-06-14T06:52:56;19.73;;;5.15;;
80823;SDS011;70538;59.122;37.876;2023-06-14T06:55:25;30.83;;;9.32;;
80823;SDS011;70538;59.122;37.876;2023-06-14T06:57:53;21.27;;;6.50;;
80823;SDS011;70538;59.122;37.876;2023-06-14T07:00:21;15.67;;;5.30;;
80823;SDS011;70538;59.122;37.876;2023-06-14T07:02:50;20.98;;;4.22;;
80823;SDS011;70538;59.122;37.876;2023-06-14T07:05:19;11.52;;;4.00;;
80823;SDS011;70538;59.122;37.876;2023-06-14T07:07:54;14.95;;;3.97;;
80823;SDS011;70538;59.122;37.876;2023-06-14T07:10:24;15.52;;;3.97;;
80823;SDS011;70538;59.122;37.876;2023-06-14T07:12:53;8.67;;;4.37;;
80823;SDS011;70538;59.122;37.876;2023-06-14T07:15:21;13.10;;;5.22;;
80823;SDS011;70538;59.122;37.876;2023-06-14T07:17:51;10.82;;;4.60;;
80823;SDS011;70538;59.122;37.876;2023-06-14T07:20:27;12.68;;;4.30;;
80823;SDS011;70538;59.122;37.876;2023-06-14T07:22:55;11.10;;;4.43;;
80823;SDS011;70538;59.122;37.876;2023-06-14T07:25:24;15.37;;;4.40;;
80823;SDS011;70538;59.122;37.876;2023-06-14T07:27:53;14.52;;;3.80;;
80823;SDS011;70538;59.122;37.876;2023-06-14T07:30:21;15.23;;;4.40;;
80823;SDS011;70538;59.122;37.876;2023-06-14T07:32:54;9.88;;;3.10;;
80823;SDS011;70538;59.122;37.876;2023-06-14T07:35:22;9.02;;;3.33;;
80823;SDS011;70538;59.122;37.876;2023-06-14T07:37:51;6.60;;;3.17;;
80823;SDS011;70538;59.122;37.876;2023-06-14T07:40:19;8.27;;;3.00;;
80823;SDS011;70538;59.122;37.876;2023-06-14T07:42:47;10.65;;;3.40;;
80823;SDS011;70538;59.122;37.876;2023-06-14T07:45:18;8.77;;;3.30;;
80823;SDS011;70538;59.122;37.876;2023-06-14T07:47:47;7.00;;;3.45;;
80823;SDS011;70538;59.122;37.876;2023-06-14T07:50:15;7.00;;;3.53;;
80823;SDS011;70538;59.122;37.876;2023-06-14T07:52:43;9.65;;;3.22;;
80823;SDS011;70538;59.122;37.876;2023-06-14T07:55:17;7.90;;;2.95;;
80823;SDS011;70538;59.122;37.876;2023-06-14T07:57:46;8.35;;;3.42;;
80823;SDS011;70538;59.122;37.876;2023-06-14T08:00:14;11.20;;;3.58;;
80823;SDS011;70538;59.122;37.876;2023-06-14T08:02:43;12.03;;;3.77;;
80823;SDS011;70538;59.122;37.876;2023-06-14T08:05:13;10.57;;;3.72;;
80823;SDS011;70538;59.122;37.876;2023-06-14T08:07:42;9.65;;;3.83;;
80823;SDS011;70538;59.122;37.876;2023-06-14T08:10:10;12.57;;;4.10;;
80823;SDS011;70538;59.122;37.876;2023-06-14T08:12:38;14.75;;;4.07;;
80823;SDS011;70538;59.122;37.876;2023-06-14T08:15:07;10.60;;;4.20;;
80823;SDS011;70538;59.122;37.876;2023-06-14T08:17:43;9.93;;;4.00;;
80823;SDS011;70538;59.122;37.876;2023-06-14T08:20:20;10.25;;;3.80;;
80823;SDS011;70538;59.122;37.876;2023-06-14T08:22:56;9.95;;;3.83;;
80823;SDS011;70538;59.122;37.876;2023-06-14T08:25:28;11.55;;;4.80;;
80823;SDS011;70538;59.122;37.876;2023-06-14T08:27:56;13.17;;;4.60;;
80823;SDS011;70538;59.122;37.876;2023-06-14T08:30:25;14.35;;;4.35;;
80823;SDS011;70538;59.122;37.876;2023-06-14T08:32:53;9.55;;;3.72;;
80823;SDS011;70538;59.122;37.876;2023-06-14T08:35:43;15.25;;;4.70;;
80823;SDS011;70538;59.122;37.876;2023-06-14T08:38:12;7.53;;;3.67;;
80823;SDS011;70538;59.122;37.876;2023-06-14T08:40:41;11.97;;;4.00;;
80823;SDS011;70538;59.122;37.876;2023-06-14T08:43:13;9.57;;;3.97;;
80823;SDS011;70538;59.122;37.876;2023-06-14T08:45:41;17.00;;;5.85;;
80823;SDS011;70538;59.122;37.876;2023-06-14T08:48:10;9.52;;;4.00;;
80823;SDS011;70538;59.122;37.876;2023-06-14T08:50:39;15.73;;;4.97;;
80823;SDS011;70538;59.122;37.876;2023-06-14T08:53:13;7.13;;;3.00;;
80823;SDS011;70538;59.122;37.876;2023-06-14T08:55:48;15.25;;;6.38;;
80823;SDS011;70538;59.122;37.876;2023-06-14T08:58:16;12.25;;;5.28;;
80823;SDS011;70538;59.122;37.876;2023-06-14T09:00:46;8.60;;;3.80;;
80823;SDS011;70538;59.122;37.876;2023-06-14T09:03:15;8.70;;;4.63;;
80823;SDS011;70538;59.122;37.876;2023-06-14T09:05:43;11.03;;;5.27;;
80823;SDS011;70538;59.122;37.876;2023-06-14T09:08:15;9.95;;;4.20;;
80823;SDS011;70538;59.122;37.876;2023-06-14T09:10:44;9.70;;;4.70;;
80823;SDS011;70538;59.122;37.876;2023-06-14T09:13:12;12.23;;;4.60;;
80823;SDS011;70538;59.122;37.876;2023-06-14T09:15:41;12.27;;;4.30;;
80823;SDS011;70538;59.122;37.876;2023-06-14T09:18:10;10.53;;;4.43;;
80823;SDS011;70538;59.122;37.876;2023-06-14T09:20:39;10.43;;;4.28;;
80823;SDS011;70538;59.122;37.876;2023-06-14T09:23:08;12.10;;;4.25;;
80823;SDS011;70538;59.122;37.876;2023-06-14T09:25:42;11.75;;;4.32;;
80823;SDS011;70538;59.122;37.876;2023-06-14T09:28:14;12.25;;;4.43;;
80823;SDS011;70538;59.122;37.876;2023-06-14T09:30:43;14.20;;;5.80;;
80823;SDS011;70538;59.122;37.876;2023-06-14T09:33:16;18.65;;;6.55;;
80823;SDS011;70538;59.122;37.876;2023-06-14T09:35:52;13.80;;;5.60;;
80823;SDS011;70538;59.122;37.876;2023-06-14T09:38:24;8.30;;;3.20;;
80823;SDS011;70538;59.122;37.876;2023-06-14T09:40:57;9.30;;;3.75;;
80823;SDS011;70538;59.122;37.876;2023-06-14T09:43:26;12.47;;;4.63;;
80823;SDS011;70538;59.122;37.876;2023-06-14T09:46:03;9.38;;;4.40;;
80823;SDS011;70538;59.122;37.876;2023-06-14T09:48:35;10.57;;;5.13;;
80823;SDS011;70538;59.122;37.876;2023-06-14T09:51:04;7.00;;;3.22;;
80823;SDS011;70538;59.122;37.876;2023-06-14T09:53:36;11.70;;;4.55;;
80823;SDS011;70538;59.122;37.876;2023-06-14T09:56:05;9.93;;;4.53;;
80823;SDS011;70538;59.122;37.876;2023-06-14T09:58:34;11.35;;;4.68;;
80823;SDS011;70538;59.122;37.876;2023-06-14T10:01:08;12.07;;;4.72;;
80823;SDS011;70538;59.122;37.876;2023-06-14T10:03:37;11.10;;;4.13;;
80823;SDS011;70538;59.122;37.876;2023-06-14T10:06:26;12.00;;;4.97;;
80823;SDS011;70538;59.122;37.876;2023-06-14T10:08:58;17.70;;;4.90;;
80823;SDS011;70538;59.122;37.876;2023-06-14T10:11:28;13.25;;;4.75;;
80823;SDS011;70538;59.122;37.876;2023-06-14T10:14:01;10.38;;;4.45;;
80823;SDS011;70538;59.122;37.876;2023-06-14T10:16:32;10.00;;;5.15;;
80823;SDS011;70538;59.122;37.876;2023-06-14T10:19:11;10.27;;;4.43;;
80823;SDS011;70538;59.122;37.876;2023-06-14T10:21:51;9.50;;;3.90;;
80823;SDS011;70538;59.122;37.876;2023-06-14T10:24:32;9.93;;;4.10;;
80823;SDS011;70538;59.122;37.876;2023-06-14T10:27:05;10.15;;;4.68;;
80823;SDS011;70538;59.122;37.876;2023-06-14T10:32:22;13.55;;;4.65;;
80823;SDS011;70538;59.122;37.876;2023-06-14T10:34:56;10.87;;;4.90;;
80823;SDS011;70538;59.122;37.876;2023-06-14T10:37:46;9.35;;;4.07;;
80823;SDS011;70538;59.122;37.876;2023-06-14T10:40:29;9.93;;;4.00;;
80823;SDS011;70538;59.122;37.876;2023-06-14T10:42:58;9.35;;;4.60;;
80823;SDS011;70538;59.122;37.876;2023-06-14T10:45:27;9.20;;;4.55;;
80823;SDS011;70538;59.122;37.876;2023-06-14T10:47:57;9.80;;;3.93;;
80823;SDS011;70538;59.122;37.876;2023-06-14T10:50:28;15.85;;;6.70;;
80823;SDS011;70538;59.122;37.876;2023-06-14T10:52:57;10.23;;;4.00;;
80823;SDS011;70538;59.122;37.876;2023-06-14T10:55:25;11.20;;;4.47;;
80823;SDS011;70538;59.122;37.876;2023-06-14T10:58:02;8.93;;;4.30;;
80823;SDS011;70538;59.122;37.876;2023-06-14T11:00:31;11.23;;;4.90;;
80823;SDS011;70538;59.122;37.876;2023-06-14T11:05:44;9.70;;;4.68;;
80823;SDS011;70538;59.122;37.876;2023-06-14T11:11:34;13.63;;;5.72;;
80823;SDS011;70538;59.122;37.876;2023-06-14T11:14:04;11.83;;;4.47;;
80823;SDS011;70538;59.122;37.876;2023-06-14T11:16:33;13.85;;;5.28;;
80823;SDS011;70538;59.122;37.876;2023-06-14T11:19:01;10.48;;;5.20;;
80823;SDS011;70538;59.122;37.876;2023-06-14T11:21:33;12.90;;;5.55;;
80823;SDS011;70538;59.122;37.876;2023-06-14T11:24:02;10.93;;;5.50;;
80823;SDS011;70538;59.122;37.876;2023-06-14T11:26:31;9.73;;;5.27;;
80823;SDS011;70538;59.122;37.876;2023-06-14T11:29:02;11.20;;;5.32;;
80823;SDS011;70538;59.122;37.876;2023-06-14T11:31:31;14.23;;;6.00;;
80823;SDS011;70538;59.122;37.876;2023-06-14T11:34:00;14.75;;;5.53;;
80823;SDS011;70538;59.122;37.876;2023-06-14T11:36:29;16.20;;;5.85;;
80823;SDS011;70538;59.122;37.876;2023-06-14T11:39:03;13.60;;;5.30;;
80823;SDS011;70538;59.122;37.876;2023-06-14T11:41:38;9.13;;;4.90;;
80823;SDS011;70538;59.122;37.876;2023-06-14T11:44:09;11.18;;;5.00;;
80823;SDS011;70538;59.122;37.876;2023-06-14T11:46:38;12.85;;;4.50;;
80823;SDS011;70538;59.122;37.876;2023-06-14T11:49:07;8.35;;;4.30;;
80823;SDS011;70538;59.122;37.876;2023-06-14T11:51:37;9.70;;;4.90;;
80823;SDS011;70538;59.122;37.876;2023-06-14T11:54:06;9.23;;;4.43;;
80823;SDS011;70538;59.122;37.876;2023-06-14T11:56:36;9.68;;;5.25;;
80823;SDS011;70538;59.122;37.876;2023-06-14T11:59:13;10.00;;;5.32;;
80823;SDS011;70538;59.122;37.876;2023-06-14T12:01:42;13.70;;;6.32;;
80823;SDS011;70538;59.122;37.876;2023-06-14T12:04:11;11.53;;;5.90;;
80823;SDS011;70538;59.122;37.876;2023-06-14T12:06:40;9.88;;;5.05;;
80823;SDS011;70538;59.122;37.876;2023-06-14T12:09:09;11.00;;;5.78;;
80823;SDS011;70538;59.122;37.876;2023-06-14T12:11:46;9.95;;;5.72;;
80823;SDS011;70538;59.122;37.876;2023-06-14T12:14:14;12.75;;;5.70;;
80823;SDS011;70538;59.122;37.876;2023-06-14T12:16:44;10.73;;;5.50;;
80823;SDS011;70538;59.122;37.876;2023-06-14T12:19:16;9.23;;;5.00;;
80823;SDS011;70538;59.122;37.876;2023-06-14T12:21:48;9.85;;;4.78;;
80823;SDS011;70538;59.122;37.876;2023-06-14T12:24:17;10.55;;;4.90;;
80823;SDS011;70538;59.122;37.876;2023-06-14T12:26:46;9.15;;;5.25;;
80823;SDS011;70538;59.122;37.876;2023-06-14T12:29:15;7.50;;;4.17;;
80823;SDS011;70538;59.122;37.876;2023-06-14T12:31:43;9.10;;;5.30;;
80823;SDS011;70538;59.122;37.876;2023-06-14T12:34:12;11.52;;;5.43;;
80823;SDS011;70538;59.122;37.876;2023-06-14T12:36:40;11.88;;;5.40;;
80823;SDS011;70538;59.122;37.876;2023-06-14T12:39:09;8.85;;;5.40;;
80823;SDS011;70538;59.122;37.876;2023-06-14T12:41:38;9.30;;;5.57;;
80823;SDS011;70538;59.122;37.876;2023-06-14T12:44:10;8.07;;;4.95;;
80823;SDS011;70538;59.122;37.876;2023-06-14T12:46:39;11.07;;;4.93;;
80823;SDS011;70538;59.122;37.876;2023-06-14T12:49:10;8.30;;;4.15;;
80823;SDS011;70538;59.122;37.876;2023-06-14T12:51:39;8.02;;;4.82;;
80823;SDS011;70538;59.122;37.876;2023-06-14T12:54:08;10.30;;;4.93;;
80823;SDS011;70538;59.122;37.876;2023-06-14T12:56:40;13.30;;;5.20;;
80823;SDS011;70538;59.122;37.876;2023-06-14T12:59:10;9.38;;;4.32;;
80823;SDS011;70538;59.122;37.876;2023-06-14T13:01:41;10.00;;;5.47;;
80823;SDS011;70538;59.122;37.876;2023-06-14T13:04:10;8.77;;;4.22;;
80823;SDS011;70538;59.122;37.876;2023-06-14T13:06:39;7.10;;;4.57;;
80823;SDS011;70538;59.122;37.876;2023-06-14T13:09:07;9.45;;;5.25;;
80823;SDS011;70538;59.122;37.876;2023-06-14T13:11:36;12.48;;;5.65;;
80823;SDS011;70538;59.122;37.876;2023-06-14T13:14:05;9.57;;;4.60;;
80823;SDS011;70538;59.122;37.876;2023-06-14T13:16:52;9.95;;;4.85;;
80823;SDS011;70538;59.122;37.876;2023-06-14T13:19:22;15.73;;;6.30;;
80823;SDS011;70538;59.122;37.876;2023-06-14T13:21:51;13.43;;;6.55;;
80823;SDS011;70538;59.122;37.876;2023-06-14T13:24:19;10.27;;;6.13;;
80823;SDS011;70538;59.122;37.876;2023-06-14T13:26:48;13.80;;;6.50;;
80823;SDS011;70538;59.122;37.876;2023-06-14T13:29:17;16.45;;;7.80;;
80823;SDS011;70538;59.122;37.876;2023-06-14T13:31:45;12.63;;;6.17;;
80823;SDS011;70538;59.122;37.876;2023-06-14T13:34:14;15.93;;;7.10;;
80823;SDS011;70538;59.122;37.876;2023-06-14T13:36:43;12.50;;;6.43;;
80823;SDS011;70538;59.122;37.876;2023-06-14T13:39:11;12.95;;;6.65;;
80823;SDS011;70538;59.122;37.876;2023-06-14T13:41:40;16.42;;;6.63;;
80823;SDS011;70538;59.122;37.876;2023-06-14T13:44:08;12.73;;;5.57;;
80823;SDS011;70538;59.122;37.876;2023-06-14T13:46:47;11.60;;;5.45;;
80823;SDS011;70538;59.122;37.876;2023-06-14T13:49:16;19.13;;;8.25;;
80823;SDS011;70538;59.122;37.876;2023-06-14T13:51:45;13.63;;;6.97;;
80823;SDS011;70538;59.122;37.876;2023-06-14T13:54:14;13.93;;;6.75;;
80823;SDS011;70538;59.122;37.876;2023-06-14T13:56:43;9.50;;;5.40;;
80823;SDS011;70538;59.122;37.876;2023-06-14T13:59:19;13.20;;;5.18;;
80823;SDS011;70538;59.122;37.876;2023-06-14T14:01:48;11.45;;;5.63;;
80823;SDS011;70538;59.122;37.876;2023-06-14T14:04:19;12.80;;;6.28;;
80823;SDS011;70538;59.122;37.876;2023-06-14T14:06:52;9.10;;;5.72;;
80823;SDS011;70538;59.122;37.876;2023-06-14T14:09:21;13.57;;;6.07;;
80823;SDS011;70538;59.122;37.876;2023-06-14T14:11:49;11.98;;;5.75;;
80823;SDS011;70538;59.122;37.876;2023-06-14T14:14:21;10.90;;;6.22;;
80823;SDS011;70538;59.122;37.876;2023-06-14T14:16:51;11.50;;;5.68;;
80823;SDS011;70538;59.122;37.876;2023-06-14T14:19:21;15.77;;;6.40;;
80823;SDS011;70538;59.122;37.876;2023-06-14T14:21:50;12.20;;;6.23;;
80823;SDS011;70538;59.122;37.876;2023-06-14T14:24:18;9.45;;;5.90;;
80823;SDS011;70538;59.122;37.876;2023-06-14T14:26:50;11.48;;;5.88;;
80823;SDS011;70538;59.122;37.876;2023-06-14T14:29:24;11.55;;;6.13;;
80823;SDS011;70538;59.122;37.876;2023-06-14T14:31:54;9.80;;;5.28;;
80823;SDS011;70538;59.122;37.876;2023-06-14T14:34:25;16.13;;;6.70;;
80823;SDS011;70538;59.122;37.876;2023-06-14T14:36:59;14.40;;;6.68;;
80823;SDS011;70538;59.122;37.876;2023-06-14T14:39:27;12.25;;;5.50;;
80823;SDS011;70538;59.122;37.876;2023-06-14T14:41:56;13.23;;;6.00;;
80823;SDS011;70538;59.122;37.876;2023-06-14T14:44:24;13.15;;;6.40;;
80823;SDS011;70538;59.122;37.876;2023-06-14T14:46:53;7.53;;;3.70;;
80823;SDS011;70538;59.122;37.876;2023-06-14T14:49:24;11.23;;;5.45;;
80823;SDS011;70538;59.122;37.876;2023-06-14T14:51:53;10.98;;;6.22;;